Time;durP1;ratioP1;P1;durP2;ratioP2;P2;SDS_P1;SDS_P2;PMS_P1;PMS_P2;Temp;Humidity;BMP_temperature;BMP_pressure;BME280_temperature;BME280_humidity;BME280_pressure;Samples;Min_cycle;Max_cycle;Signal;HPM_P1;HPM_P2
2023/08/18 00:00:08;;;;;;;29.35;13.07;;;;;;;29.95;nan;97708.44;4965748;28;20062;-69
2023/08/18 00:02:37;;;;;;;32.88;13.60;;;;;;;29.95;nan;97705.72;4979567;28;20165;-69
2023/08/18 00:05:08;;;;;;;35.40;12.68;;;;;;;29.92;nan;97700.94;4962616;28;20759;-70
2023/08/18 00:07:37;;;;;;;32.72;11.80;;;;;;;29.91;nan;97702.88;4961339;28;20145;-69
2023/08/18 00:10:08;;;;;;;34.40;13.30;;;;;;;29.93;nan;97702.50;4958294;28;20828;-69
2023/08/18 00:12:37;;;;;;;36.15;11.80;;;;;;;29.91;nan;97702.06;4958680;28;20054;-69
2023/08/18 00:15:06;;;;;;;31.70;12.23;;;;;;;29.91;nan;97704.81;4981003;28;20139;-70
2023/08/18 00:17:36;;;;;;;45.53;12.10;;;;;;;29.90;nan;97706.75;4978308;28;20061;-69
2023/08/18 00:20:06;;;;;;;32.50;12.50;;;;;;;29.89;nan;97705.13;4961345;28;20043;-69
2023/08/18 00:22:38;;;;;;;32.87;13.33;;;;;;;29.86;nan;97709.34;4960192;28;20061;-69
2023/08/18 00:25:07;;;;;;;31.70;11.95;;;;;;;29.85;nan;97710.47;4959739;28;20303;-69
2023/08/18 00:27:37;;;;;;;30.92;12.25;;;;;;;29.81;nan;97712.28;4967364;28;20125;-67
2023/08/18 00:30:07;;;;;;;26.00;12.57;;;;;;;29.85;nan;97717.84;4966152;28;20050;-69
2023/08/18 00:32:38;;;;;;;28.27;12.88;;;;;;;29.82;nan;97710.34;4978004;28;20425;-69
2023/08/18 00:35:07;;;;;;;29.52;12.63;;;;;;;29.83;nan;97715.47;4964065;28;20378;-69
2023/08/18 00:37:37;;;;;;;28.92;11.52;;;;;;;29.84;nan;97717.06;4965936;28;20133;-68
2023/08/18 00:40:07;;;;;;;36.03;12.32;;;;;;;29.85;nan;97717.84;4981253;28;20074;-68
2023/08/18 00:42:36;;;;;;;28.30;11.93;;;;;;;29.88;nan;97719.94;4962614;28;20150;-68
2023/08/18 00:45:06;;;;;;;32.30;12.63;;;;;;;29.92;nan;97731.75;4965090;28;20058;-68
2023/08/18 00:47:38;;;;;;;37.58;13.90;;;;;;;29.93;nan;97727.88;4980961;28;20050;-69
2023/08/18 00:50:10;;;;;;;37.63;16.40;;;;;;;29.93;nan;97727.88;4965907;28;20058;-69
2023/08/18 00:52:43;;;;;;;38.72;15.25;;;;;;;29.94;nan;97724.03;4963207;28;20042;-69
2023/08/18 00:55:13;;;;;;;35.53;14.15;;;;;;;29.96;nan;97732.69;4964684;28;20054;-68
2023/08/18 00:57:43;;;;;;;34.00;13.95;;;;;;;29.99;nan;97731.19;4948532;28;20043;-68
2023/08/18 01:00:13;;;;;;;36.55;14.05;;;;;;;30.05;nan;97727.88;4962451;28;20557;-69
2023/08/18 01:02:42;;;;;;;33.92;13.65;;;;;;;30.12;nan;97732.78;4960418;28;20379;-69
2023/08/18 01:05:11;;;;;;;35.75;14.52;;;;;;;30.16;nan;97736.41;4948607;28;20078;-68
2023/08/18 01:07:42;;;;;;;35.65;14.05;;;;;;;30.20;nan;97735.38;4965071;28;20415;-68
2023/08/18 01:10:12;;;;;;;29.40;13.48;;;;;;;30.21;nan;97734.25;4964004;28;20372;-68
2023/08/18 01:13:08;;;;;;;39.28;13.80;;;;;;;30.24;nan;97738.22;4960679;28;20487;-68
2023/08/18 01:15:42;;;;;;;32.67;12.57;;;;;;;30.26;nan;97735.94;4957886;28;20105;-69
2023/08/18 01:18:12;;;;;;;32.15;13.75;;;;;;;30.28;nan;97741.84;4959582;28;20047;-68
2023/08/18 01:20:43;;;;;;;35.80;13.25;;;;;;;30.33;nan;97744.34;4959187;28;20074;-68
2023/08/18 01:23:12;;;;;;;34.50;14.43;;;;;;;30.40;nan;97738.31;4960015;28;20542;-68
2023/08/18 01:25:41;;;;;;;31.48;12.70;;;;;;;30.46;nan;97745.13;4973368;28;20154;-69
2023/08/18 01:28:11;;;;;;;48.10;15.82;;;;;;;30.49;nan;97758.13;4963028;28;20470;-69
2023/08/18 01:30:51;;;;;;;35.92;14.80;;;;;;;30.55;nan;97760.25;4971572;28;20146;-69
2023/08/18 01:33:25;;;;;;;29.67;13.85;;;;;;;30.63;nan;97759.31;4963108;28;20039;-69
2023/08/18 01:36:02;;;;;;;34.90;15.23;;;;;;;30.71;nan;97765.81;4959340;28;20576;-69
2023/08/18 01:38:33;;;;;;;38.25;14.25;;;;;;;30.81;nan;97767.25;4961410;28;20546;-69
2023/08/18 01:41:08;;;;;;;31.80;15.55;;;;;;;30.85;nan;97766.19;4975162;28;20054;-69
2023/08/18 01:43:37;;;;;;;41.00;15.68;;;;;;;30.90;nan;97768.69;4962278;28;20057;-69
2023/08/18 01:46:07;;;;;;;39.40;14.75;;;;;;;30.93;nan;97772.69;4974811;28;20050;-69
2023/08/18 01:48:36;;;;;;;36.22;15.57;;;;;;;31.01;nan;97760.81;4964140;28;20078;-69
2023/08/18 01:51:06;;;;;;;42.00;16.45;;;;;;;31.01;nan;97766.28;4959671;28;21010;-69
2023/08/18 01:53:35;;;;;;;32.25;15.82;;;;;;;31.11;nan;97768.53;4978238;28;20054;-68
2023/08/18 01:56:05;;;;;;;39.15;17.08;;;;;;;31.21;nan;97768.81;4958859;28;20050;-69
2023/08/18 01:58:34;;;;;;;34.20;15.90;;;;;;;31.30;nan;97782.34;4960639;28;20062;-69
2023/08/18 02:01:03;;;;;;;39.08;17.63;;;;;;;31.39;nan;97782.16;4957667;28;20106;-69
2023/08/18 02:03:33;;;;;;;42.20;17.48;;;;;;;31.40;nan;97783.75;4958592;28;20126;-68
2023/08/18 02:06:03;;;;;;;39.05;16.40;;;;;;;31.46;nan;97788.66;4973895;28;20039;-69
2023/08/18 02:08:33;;;;;;;35.50;15.20;;;;;;;31.56;nan;97793.63;4964032;28;20590;-69
2023/08/18 02:11:05;;;;;;;42.15;17.00;;;;;;;31.63;nan;97793.00;4977636;28;20530;-69
2023/08/18 02:13:34;;;;;;;40.83;17.10;;;;;;;31.70;nan;97803.34;4942548;28;20121;-68
2023/08/18 02:16:04;;;;;;;43.72;16.88;;;;;;;31.70;nan;97806.88;4973583;28;20055;-69
2023/08/18 02:18:33;;;;;;;40.80;18.17;;;;;;;31.82;nan;97811.50;4960229;28;20074;-69
2023/08/18 02:21:03;;;;;;;45.28;17.77;;;;;;;31.89;nan;97811.66;4957557;28;20429;-70
2023/08/18 02:23:33;;;;;;;36.70;19.23;;;;;;;32.02;nan;97818.63;4941315;28;20825;-69
2023/08/18 02:26:06;;;;;;;37.30;17.48;;;;;;;32.26;nan;97820.44;4957183;28;20062;-70
2023/08/18 02:28:35;;;;;;;38.42;18.00;;;;;;;32.50;nan;97825.69;4962304;28;20043;-69
2023/08/18 02:31:06;;;;;;;36.08;18.02;;;;;;;32.54;nan;97832.81;4965964;28;20050;-69
2023/08/18 02:33:36;;;;;;;35.88;17.17;;;;;;;32.83;nan;97830.75;4961700;28;20074;-69
2023/08/18 02:36:06;;;;;;;40.53;17.67;;;;;;;32.98;nan;97830.69;4966256;28;20046;-69
2023/08/18 02:38:36;;;;;;;34.83;17.10;;;;;;;33.06;nan;97831.59;4961048;28;20047;-69
2023/08/18 02:41:05;;;;;;;35.08;16.08;;;;;;;33.13;nan;97842.75;4979316;28;20105;-69
2023/08/18 02:43:38;;;;;;;35.03;12.45;;;;;;;33.02;nan;97843.69;4962463;28;20077;-69
2023/08/18 02:46:08;;;;;;;27.45;10.73;;;;;;;33.01;nan;97845.66;4982564;28;20058;-69
2023/08/18 02:48:37;;;;;;;33.92;12.10;;;;;;;33.13;nan;97848.25;4980408;28;20053;-70
2023/08/18 02:51:08;;;;;;;29.52;10.55;;;;;;;33.13;nan;97852.94;4965288;28;20058;-70
2023/08/18 02:53:38;;;;;;;33.40;11.00;;;;;;;32.94;nan;97851.75;4966870;28;20141;-69
2023/08/18 02:56:08;;;;;;;29.02;11.98;;;;;;;33.05;nan;97856.69;4966633;28;20082;-69
2023/08/18 02:58:38;;;;;;;32.22;10.50;;;;;;;32.96;nan;97851.41;4982895;28;20141;-69
2023/08/18 03:01:09;;;;;;;33.40;12.07;;;;;;;33.08;nan;97858.69;4964299;28;20057;-69
2023/08/18 03:03:39;;;;;;;35.88;11.98;;;;;;;33.06;nan;97863.78;4978150;28;20047;-69
2023/08/18 03:06:08;;;;;;;38.13;9.70;;;;;;;32.99;nan;97853.44;4964319;28;20474;-69
2023/08/18 03:08:39;;;;;;;33.78;9.15;;;;;;;32.97;nan;97859.25;4967084;28;20053;-69
2023/08/18 03:11:08;;;;;;;33.42;8.60;;;;;;;33.04;nan;97866.06;4966835;28;20348;-69
2023/08/18 03:13:37;;;;;;;25.67;8.90;;;;;;;33.07;nan;97865.34;4978850;28;20074;-69
2023/08/18 03:16:06;;;;;;;26.00;10.10;;;;;;;33.09;nan;97865.78;4966248;28;20089;-70
2023/08/18 03:18:36;;;;;;;25.92;8.70;;;;;;;33.14;nan;97868.25;4973039;28;20134;-70
2023/08/18 03:21:05;;;;;;;23.02;7.00;;;;;;;32.96;nan;97870.63;4955973;28;20130;-69
2023/08/18 03:23:35;;;;;;;29.60;8.82;;;;;;;33.01;nan;97872.28;4959167;28;20054;-70
2023/08/18 03:26:05;;;;;;;23.73;8.68;;;;;;;33.19;nan;97882.53;4977533;28;20105;-69
2023/08/18 03:28:37;;;;;;;27.65;7.75;;;;;;;33.12;nan;97876.84;4960855;28;20657;-69
2023/08/18 03:31:08;;;;;;;23.45;8.73;;;;;;;33.15;nan;97883.59;4957921;28;20663;-70
2023/08/18 03:33:37;;;;;;;29.13;8.73;;;;;;;33.28;nan;97882.31;4962414;28;20121;-69
2023/08/18 03:36:09;;;;;;;38.03;10.13;;;;;;;33.37;nan;97893.88;4976089;28;20061;-69
2023/08/18 03:38:38;;;;;;;35.28;9.50;;;;;;;33.27;nan;97891.69;4963170;28;20051;-70
2023/08/18 03:41:08;;;;;;;22.83;9.68;;;;;;;33.48;nan;97892.13;4962961;28;20051;-70
2023/08/18 03:43:37;;;;;;;31.98;9.18;;;;;;;33.45;nan;97894.78;4956167;28;20073;-69
2023/08/18 03:46:22;;;;;;;24.45;8.68;;;;;;;33.45;nan;97894.78;4965675;28;20109;-69
2023/08/18 03:48:56;;;;;;;24.13;9.05;;;;;;;33.52;nan;97905.91;4924376;28;20116;-68
2023/08/18 03:51:26;;;;;;;24.52;8.02;;;;;;;33.50;nan;97900.00;4966633;28;20066;-69
2023/08/18 03:53:56;;;;;;;32.85;8.93;;;;;;;33.63;nan;97898.69;4965550;28;20054;-69
2023/08/18 03:56:26;;;;;;;32.25;9.52;;;;;;;33.65;nan;97905.41;4964286;28;20054;-68
2023/08/18 03:58:55;;;;;;;31.00;9.50;;;;;;;33.70;nan;97901.59;4961026;28;20046;-69
2023/08/18 04:01:25;;;;;;;27.08;8.23;;;;;;;33.74;nan;97907.94;4956169;28;20613;-69
2023/08/18 04:03:59;;;;;;;22.75;7.82;;;;;;;33.72;nan;97911.06;4955324;28;20050;-70
2023/08/18 04:06:28;;;;;;;33.08;9.98;;;;;;;33.85;nan;97906.19;4964783;28;20068;-70
2023/08/18 04:09:06;;;;;;;36.35;10.88;;;;;;;33.95;nan;97905.56;4963898;28;20109;-70
2023/08/18 04:11:36;;;;;;;35.67;10.48;;;;;;;34.05;nan;97912.44;4962444;28;20663;-70
2023/08/18 04:14:05;;;;;;;34.60;9.27;;;;;;;34.19;nan;97908.00;4962372;28;20046;-69
2023/08/18 04:16:34;;;;;;;29.85;9.40;;;;;;;34.15;nan;97907.13;4962631;28;20051;-70
2023/08/18 04:19:04;;;;;;;33.92;9.80;;;;;;;34.23;nan;97908.88;4963440;28;20071;-68
2023/08/18 04:21:35;;;;;;;27.13;8.98;;;;;;;34.35;nan;97904.31;4980268;28;20039;-69
2023/08/18 04:24:05;;;;;;;31.13;9.77;;;;;;;34.40;nan;97918.56;4962957;28;20625;-69
2023/08/18 04:26:37;;;;;;;27.13;8.80;;;;;;;34.31;nan;97904.28;4960580;28;20050;-68
2023/08/18 04:29:07;;;;;;;42.85;10.25;;;;;;;34.32;nan;97905.88;4960693;28;20047;-69
2023/08/18 04:31:37;;;;;;;25.50;9.68;;;;;;;34.37;nan;97919.31;4960754;28;20082;-69
2023/08/18 04:34:11;;;;;;;27.70;8.85;;;;;;;34.54;nan;97910.56;4961702;28;20046;-69
2023/08/18 04:36:41;;;;;;;20.95;8.30;;;;;;;34.43;nan;97915.09;4962039;28;20043;-70
2023/08/18 04:39:11;;;;;;;32.70;10.63;;;;;;;34.64;nan;97915.44;4960544;28;20050;-71
2023/08/18 04:41:40;;;;;;;26.80;9.05;;;;;;;34.75;nan;97914.81;4972044;28;20049;-68
2023/08/18 04:44:10;;;;;;;34.00;9.32;;;;;;;34.74;nan;97914.03;4961379;28;20077;-70
2023/08/18 04:46:39;;;;;;;29.63;9.15;;;;;;;34.99;nan;97925.41;4963883;28;20046;-69
2023/08/18 04:49:18;;;;;;;25.35;8.43;;;;;;;35.12;nan;97924.00;4959147;28;20126;-68
2023/08/18 04:51:48;;;;;;;27.88;8.45;;;;;;;35.46;nan;97925.66;4960165;28;20043;-68
2023/08/18 04:54:17;;;;;;;29.45;8.30;;;;;;;35.54;nan;97918.25;4960788;28;20133;-68
2023/08/18 04:56:47;;;;;;;26.25;7.30;;;;;;;35.76;nan;97924.88;4961951;28;20046;-69
2023/08/18 04:59:17;;;;;;;31.30;9.60;;;;;;;35.83;nan;97924.94;4964015;28;20057;-69
2023/08/18 05:01:47;;;;;;;25.48;8.43;;;;;;;36.11;nan;97929.94;4963981;28;20105;-69
2023/08/18 05:04:16;;;;;;;26.02;7.72;;;;;;;36.04;nan;97920.44;4963153;28;20054;-69
2023/08/18 05:06:45;;;;;;;33.80;7.90;;;;;;;36.36;nan;97925.47;4962483;28;20110;-69
2023/08/18 05:09:15;;;;;;;23.67;7.55;;;;;;;36.60;nan;97918.59;4982345;28;20043;-69
2023/08/18 05:11:45;;;;;;;29.27;9.20;;;;;;;37.03;nan;97931.50;4967274;28;20051;-70
2023/08/18 05:14:14;;;;;;;26.30;7.70;;;;;;;36.98;nan;97922.78;4965086;28;20109;-69
2023/08/18 05:16:43;;;;;;;27.80;8.10;;;;;;;37.15;nan;97922.13;4966721;28;20383;-69
2023/08/18 05:19:13;;;;;;;26.33;9.05;;;;;;;37.11;nan;97922.13;4978792;28;20047;-69
2023/08/18 05:21:42;;;;;;;19.63;6.95;;;;;;;37.12;nan;97923.72;4965183;28;20090;-69
2023/08/18 05:24:11;;;;;;;23.08;7.25;;;;;;;37.16;nan;97924.50;4963119;28;20057;-69
2023/08/18 05:26:41;;;;;;;28.75;7.38;;;;;;;37.24;nan;97919.81;4930173;28;20039;-68
2023/08/18 05:29:10;;;;;;;29.35;7.25;;;;;;;37.07;nan;97910.25;4960718;28;20043;-69
2023/08/18 05:31:39;;;;;;;27.73;8.07;;;;;;;37.31;nan;97919.88;4965310;28;20430;-71
2023/08/18 05:34:08;;;;;;;22.75;7.30;;;;;;;37.70;nan;97925.56;4963021;28;20363;-69
2023/08/18 05:36:38;;;;;;;28.70;7.50;;;;;;;37.27;nan;97919.81;4957766;28;20039;-70
2023/08/18 05:39:07;;;;;;;23.85;7.40;;;;;;;37.65;nan;97921.19;4962828;28;20063;-70
2023/08/18 05:41:36;;;;;;;29.35;8.13;;;;;;;37.44;nan;97923.06;4961576;28;20073;-69
2023/08/18 05:44:05;;;;;;;27.33;8.18;;;;;;;37.67;nan;97927.13;4961933;28;20098;-70
2023/08/18 05:46:35;;;;;;;32.55;8.73;;;;;;;37.55;nan;97918.38;4960713;28;20046;-70
2023/08/18 05:49:04;;;;;;;27.15;7.60;;;;;;;37.73;nan;97924.78;4963018;28;20051;-71
2023/08/18 05:51:33;;;;;;;30.15;7.65;;;;;;;37.71;nan;97918.81;4962670;28;20042;-70
2023/08/18 05:54:03;;;;;;;24.90;8.48;;;;;;;37.46;nan;97912.41;4958012;28;20065;-69
2023/08/18 05:56:32;;;;;;;21.80;7.88;;;;;;;37.80;nan;97913.72;4958268;28;20097;-69
2023/08/18 05:59:04;;;;;;;32.33;8.35;;;;;;;37.86;nan;97916.91;4948174;28;20043;-69
2023/08/18 06:01:34;;;;;;;28.50;7.55;;;;;;;38.04;nan;97906.69;4956306;28;20069;-72
2023/08/18 06:04:03;;;;;;;27.92;6.85;;;;;;;37.53;nan;97904.19;4618797;28;10000416;-70
2023/08/18 06:06:34;;;;;;;34.53;8.13;;;;;;;37.03;nan;97909.44;4956024;28;20138;-69
2023/08/18 06:09:03;;;;;;;26.88;7.57;;;;;;;37.21;nan;97904.81;4957966;28;20046;-70
2023/08/18 06:11:36;;;;;;;24.13;7.85;;;;;;;37.50;nan;97904.91;4961457;28;20047;-71
2023/08/18 06:14:06;;;;;;;28.02;7.20;;;;;;;37.64;nan;97900.25;4973582;28;20057;-70
2023/08/18 06:16:36;;;;;;;26.02;8.40;;;;;;;37.52;nan;97895.09;4957431;28;20055;-68
2023/08/18 06:19:05;;;;;;;31.15;9.23;;;;;;;37.52;nan;97892.34;4957983;28;20046;-69
2023/08/18 06:21:34;;;;;;;24.13;8.43;;;;;;;37.70;nan;97895.94;4963038;28;20046;-69
2023/08/18 06:24:04;;;;;;;27.20;7.55;;;;;;;37.56;nan;97895.09;4959546;28;20053;-67
2023/08/18 06:26:33;;;;;;;25.92;10.07;;;;;;;37.38;nan;97895.00;4976352;28;20843;-70
2023/08/18 06:29:02;;;;;;;30.10;8.48;;;;;;;37.49;nan;97893.06;4961132;28;20051;-68
2023/08/18 06:31:31;;;;;;;25.23;8.38;;;;;;;37.55;nan;97893.50;4957057;28;20585;-67
2023/08/18 06:34:01;;;;;;;28.92;9.25;;;;;;;36.98;nan;97895.97;4956503;28;20039;-68
2023/08/18 06:36:30;;;;;;;25.15;9.27;;;;;;;37.38;nan;97889.50;4954452;28;20744;-68
2023/08/18 06:38:59;;;;;;;21.42;8.18;;;;;;;37.10;nan;97887.38;4960857;28;20047;-66
2023/08/18 06:41:28;;;;;;;25.23;9.30;;;;;;;36.77;nan;97876.53;4962971;28;20448;-68
2023/08/18 06:43:58;;;;;;;24.85;9.13;;;;;;;36.72;nan;97888.72;4960724;28;20046;-69
2023/08/18 06:46:30;;;;;;;27.15;9.13;;;;;;;36.85;nan;97873.44;4956502;28;20058;-68
2023/08/18 06:49:01;;;;;;;27.10;7.78;;;;;;;36.98;nan;97876.66;4956338;28;20047;-69
2023/08/18 06:51:30;;;;;;;33.42;8.25;;;;;;;36.85;nan;97875.41;4959494;28;20077;-71
2023/08/18 06:53:59;;;;;;;27.67;8.27;;;;;;;36.79;nan;97871.41;4958125;28;20047;-70
2023/08/18 06:56:28;;;;;;;25.90;7.85;;;;;;;36.70;nan;97873.72;4964566;28;20066;-71
2023/08/18 06:58:58;;;;;;;23.75;8.35;;;;;;;36.42;nan;97869.56;4963474;28;20175;-69
2023/08/18 07:01:30;;;;;;;24.02;8.40;;;;;;;36.46;nan;97867.63;4960840;28;20046;-72
2023/08/18 07:03:59;;;;;;;30.65;8.52;;;;;;;36.72;nan;97857.56;4959743;28;20042;-70
2023/08/18 07:06:28;;;;;;;28.05;9.20;;;;;;;36.97;nan;97858.50;4959594;28;20057;-69
2023/08/18 07:08:57;;;;;;;21.77;7.80;;;;;;;36.91;nan;97858.06;4962188;28;20051;-68
2023/08/18 07:11:27;;;;;;;25.38;9.63;;;;;;;36.91;nan;97852.53;4961560;28;20065;-72
2023/08/18 07:13:56;;;;;;;19.02;7.25;;;;;;;36.97;nan;97847.44;4960801;28;20059;-71
2023/08/18 07:16:25;;;;;;;27.15;10.23;;;;;;;37.04;nan;97850.25;4959632;28;20062;-70
2023/08/18 07:18:54;;;;;;;21.13;9.05;;;;;;;37.08;nan;97847.53;4958705;28;20051;-71
2023/08/18 07:21:23;;;;;;;22.98;8.80;;;;;;;37.02;nan;97844.31;4961066;28;20051;-70
2023/08/18 07:23:53;;;;;;;29.83;9.43;;;;;;;37.09;nan;97855.41;4963143;28;20050;-69
2023/08/18 07:26:23;;;;;;;26.13;8.48;;;;;;;37.04;nan;97847.50;4958309;28;20130;-70
2023/08/18 07:28:52;;;;;;;26.70;8.82;;;;;;;36.99;nan;97839.59;4962176;28;20039;-68
2023/08/18 07:31:22;;;;;;;31.65;8.77;;;;;;;36.86;nan;97844.66;4962528;28;20462;-70
2023/08/18 07:33:52;;;;;;;29.75;8.95;;;;;;;36.85;nan;97836.75;4960610;28;20053;-70
2023/08/18 07:36:22;;;;;;;22.27;9.27;;;;;;;37.27;nan;97836.16;4962346;28;20136;-71
2023/08/18 07:38:51;;;;;;;25.50;8.48;;;;;;;37.30;nan;97835.41;4956302;28;20050;-69
2023/08/18 07:41:20;;;;;;;23.92;8.57;;;;;;;37.08;nan;97834.53;4956712;28;20081;-69
2023/08/18 07:43:49;;;;;;;29.17;9.13;;;;;;;36.83;nan;97833.56;4961223;28;20043;-69
2023/08/18 07:46:19;;;;;;;27.00;8.30;;;;;;;36.68;nan;97835.47;4958597;28;20047;-68
2023/08/18 07:48:48;;;;;;;23.27;8.55;;;;;;;36.42;nan;97836.47;4961137;28;20042;-70
2023/08/18 07:51:17;;;;;;;31.27;8.48;;;;;;;36.36;nan;97829.72;4953610;28;20047;-73
2023/08/18 07:53:46;;;;;;;20.88;7.80;;;;;;;36.21;nan;97819.75;4959598;28;20053;-70
2023/08/18 07:56:16;;;;;;;19.75;9.18;;;;;;;36.36;nan;97813.16;4959244;28;20105;-68
2023/08/18 07:58:45;;;;;;;20.20;9.25;;;;;;;36.45;nan;97813.63;4957795;28;20043;-68
2023/08/18 08:01:14;;;;;;;24.52;8.77;;;;;;;36.58;nan;97810.53;4957186;28;20771;-69
2023/08/18 08:03:47;;;;;;;23.60;7.70;;;;;;;36.52;nan;97807.34;4960906;28;20051;-71
2023/08/18 08:06:18;;;;;;;24.60;8.07;;;;;;;36.58;nan;97808.56;4938200;28;20065;-71
2023/08/18 08:08:48;;;;;;;24.13;8.85;;;;;;;36.55;nan;97808.56;4975309;28;20051;-68
2023/08/18 08:11:17;;;;;;;25.20;9.13;;;;;;;36.55;nan;97798.31;4946655;28;20050;-68
2023/08/18 08:13:46;;;;;;;25.83;8.63;;;;;;;36.65;nan;97796.78;4965146;28;20108;-71
2023/08/18 08:16:16;;;;;;;34.25;9.73;;;;;;;36.51;nan;97797.50;4960147;28;20043;-70
2023/08/18 08:18:45;;;;;;;24.17;9.25;;;;;;;36.35;nan;97785.97;4963001;28;20047;-68
2023/08/18 08:21:18;;;;;;;34.42;8.88;;;;;;;36.35;nan;97785.97;4954628;28;20410;-69
2023/08/18 08:23:47;;;;;;;31.87;9.93;;;;;;;36.13;nan;97776.75;4957867;28;20683;-69
2023/08/18 08:26:17;;;;;;;27.60;8.75;;;;;;;36.19;nan;97777.19;4960027;28;20996;-69
2023/08/18 08:28:46;;;;;;;26.60;8.82;;;;;;;36.06;nan;97782.19;4962489;28;20039;-69
2023/08/18 08:31:16;;;;;;;33.28;10.50;;;;;;;35.93;nan;97775.41;4961359;28;20057;-69
2023/08/18 08:33:45;;;;;;;30.60;10.15;;;;;;;36.03;nan;97774.66;4964463;28;20046;-70
2023/08/18 08:36:14;;;;;;;31.70;9.18;;;;;;;35.83;nan;97774.13;4960482;28;20043;-69
2023/08/18 08:38:43;;;;;;;21.25;9.70;;;;;;;35.74;nan;97765.41;4962771;28;20085;-69
2023/08/18 08:41:12;;;;;;;26.85;9.57;;;;;;;35.48;nan;97766.31;4958496;28;20065;-70
2023/08/18 08:43:42;;;;;;;18.73;8.63;;;;;;;35.64;nan;97759.75;4962810;28;20081;-69
2023/08/18 08:46:14;;;;;;;23.13;9.25;;;;;;;35.56;nan;97762.44;4963456;28;20201;-69
2023/08/18 08:48:47;;;;;;;27.35;8.95;;;;;;;35.64;nan;97757.00;4960683;28;20734;-70
2023/08/18 08:51:17;;;;;;;25.13;8.95;;;;;;;35.79;nan;97748.50;4959341;28;20053;-70
2023/08/18 08:53:47;;;;;;;22.98;9.30;;;;;;;35.80;nan;97754.81;4960048;28;20042;-69
2023/08/18 08:56:18;;;;;;;22.60;8.43;;;;;;;35.73;nan;97747.28;4974765;28;20054;-70
2023/08/18 08:58:48;;;;;;;27.05;9.27;;;;;;;35.62;nan;97748.34;4947574;28;20043;-70
2023/08/18 09:01:20;;;;;;;22.73;10.00;;;;;;;35.46;nan;97748.56;4958591;28;20538;-68
2023/08/18 09:03:51;;;;;;;22.33;8.80;;;;;;;35.41;nan;97738.69;4956108;28;20051;-68
2023/08/18 09:06:21;;;;;;;28.02;10.02;;;;;;;35.40;nan;97739.09;4973328;28;20493;-68
2023/08/18 09:08:51;;;;;;;26.83;10.82;;;;;;;35.33;nan;97741.75;4949616;28;20117;-69
2023/08/18 09:11:45;;;;;;;23.02;8.95;;;;;;;35.20;nan;97743.19;4957580;28;20059;-67
2023/08/18 09:14:16;;;;;;;26.48;9.90;;;;;;;35.05;nan;97743.00;4959552;28;20130;-71
2023/08/18 09:16:49;;;;;;;29.90;9.32;;;;;;;34.92;nan;97743.66;4958723;28;20577;-70
2023/08/18 09:19:18;;;;;;;21.13;9.50;;;;;;;34.87;nan;97738.50;4960678;28;20162;-71
2023/08/18 09:21:50;;;;;;;33.58;11.18;;;;;;;34.68;nan;97734.72;4949249;28;20074;-72
2023/08/18 09:24:25;;;;;;;22.98;8.85;;;;;;;34.44;nan;97721.41;4952599;28;20061;-74
2023/08/18 09:26:54;;;;;;;23.15;9.00;;;;;;;34.24;nan;97708.97;4954272;28;20055;-72
2023/08/18 09:29:23;;;;;;;20.13;8.60;;;;;;;33.70;nan;97715.59;4274505;28;10000741;-71
2023/08/18 09:31:52;;;;;;;23.20;9.25;;;;;;;33.41;nan;97728.00;4954479;28;20061;-71
2023/08/18 09:34:23;;;;;;;24.50;8.73;;;;;;;33.26;nan;97728.13;4957056;28;20042;-71
2023/08/18 09:36:56;;;;;;;25.88;9.85;;;;;;;33.04;nan;97720.63;4957585;28;20047;-69
2023/08/18 09:39:25;;;;;;;22.08;8.82;;;;;;;32.97;nan;97719.31;4969637;28;20166;-69
2023/08/18 09:41:55;;;;;;;24.33;9.60;;;;;;;33.10;nan;97727.44;4960330;28;20486;-71
2023/08/18 09:44:24;;;;;;;27.00;9.35;;;;;;;33.10;nan;97747.44;4958672;28;20517;-69
2023/08/18 09:46:58;;;;;;;25.45;9.60;;;;;;;33.16;nan;97747.94;4958060;28;20054;-70
2023/08/18 09:49:33;;;;;;;23.13;9.68;;;;;;;33.12;nan;97741.56;4957563;28;20530;-70
2023/08/18 09:52:05;;;;;;;26.75;10.90;;;;;;;33.04;nan;97740.63;4973192;28;20046;-70
2023/08/18 09:54:53;;;;;;;29.02;12.73;;;;;;;33.01;nan;97735.09;4971010;28;20050;-70
2023/08/18 09:57:33;;;;;;;21.00;11.30;;;;;;;32.98;nan;97734.66;4957998;28;20047;-70
2023/08/18 10:00:04;;;;;;;24.52;11.70;;;;;;;32.89;nan;97731.31;4954938;28;20051;-70
2023/08/18 10:02:39;;;;;;;17.55;11.45;;;;;;;32.82;nan;97736.69;4959083;28;20043;-70
2023/08/18 10:05:09;;;;;;;18.20;11.70;;;;;;;32.80;nan;97736.25;4956396;28;20545;-71
2023/08/18 10:07:40;;;;;;;19.58;11.77;;;;;;;32.79;nan;97734.69;4956115;28;20481;-70
2023/08/18 10:10:09;;;;;;;19.38;11.68;;;;;;;32.87;nan;97735.59;4957393;28;20134;-70
2023/08/18 10:12:40;;;;;;;18.50;12.30;;;;;;;32.90;nan;97743.91;4958255;28;20054;-70
2023/08/18 10:15:10;;;;;;;20.95;12.57;;;;;;;32.90;nan;97746.63;4956457;28;20047;-70
2023/08/18 10:17:42;;;;;;;17.90;12.25;;;;;;;32.86;nan;97731.25;4961461;28;20046;-70
2023/08/18 10:20:12;;;;;;;17.10;11.77;;;;;;;32.91;nan;97731.78;4971504;28;20155;-70
2023/08/18 10:22:43;;;;;;;23.17;12.40;;;;;;;32.92;nan;97716.91;4977016;28;20050;-70
2023/08/18 10:25:29;;;;;;;17.67;12.40;;;;;;;32.91;nan;97722.75;4973136;28;20051;-70
2023/08/18 10:27:58;;;;;;;21.83;13.10;;;;;;;32.96;nan;97726.00;4951640;28;20134;-70
2023/08/18 10:30:28;;;;;;;26.88;13.63;;;;;;;33.03;nan;97716.28;4970644;28;20149;-70
2023/08/18 10:33:31;;;;;;;19.42;11.82;;;;;;;33.20;nan;97724.88;4961571;28;20093;-71
2023/08/18 10:36:04;;;;;;;26.33;11.95;;;;;;;33.35;nan;97728.69;4961807;28;20054;-70
2023/08/18 10:38:35;;;;;;;;;;;;;;;33.29;nan;97733.69;4958560;28;20050;-71
2023/08/18 10:41:05;;;;;;;22.90;12.20;;;;;;;33.38;nan;97730.69;4960408;28;19933;-71
2023/08/18 10:43:58;;;;;;;16.92;11.13;;;;;;;33.41;nan;97719.78;4958784;28;20785;-70
2023/08/18 10:46:37;;;;;;;16.85;9.88;;;;;;;33.39;nan;97713.06;4959119;28;20047;-70
2023/08/18 10:49:07;;;;;;;17.17;10.38;;;;;;;33.45;nan;97710.81;4956790;28;20055;-70
2023/08/18 10:51:36;;;;;;;18.55;11.18;;;;;;;33.50;nan;97719.56;4975721;28;20042;-71
2023/08/18 10:54:08;;;;;;;18.02;11.00;;;;;;;33.55;nan;97716.47;4961317;28;20066;-73
2023/08/18 10:56:37;;;;;;;16.92;10.73;;;;;;;33.42;nan;97712.34;4962672;28;20054;-68
2023/08/18 10:59:06;;;;;;;24.52;12.68;;;;;;;33.31;nan;97690.19;4943150;28;20058;-70
2023/08/18 11:01:36;;;;;;;17.40;10.77;;;;;;;33.40;nan;97696.25;4980240;28;20415;-70
2023/08/18 11:04:07;;;;;;;19.35;11.23;;;;;;;33.34;nan;97683.16;4977148;28;20047;-69
2023/08/18 11:06:36;;;;;;;21.15;10.75;;;;;;;33.45;nan;97683.38;4941155;28;20781;-70
2023/08/18 11:09:06;;;;;;;19.40;10.85;;;;;;;33.44;nan;97677.06;4961261;28;20046;-71
2023/08/18 11:11:38;;;;;;;16.95;11.15;;;;;;;33.48;nan;97671.63;4977044;28;20113;-73
2023/08/18 11:14:07;;;;;;;19.80;11.85;;;;;;;33.52;nan;97675.22;4972394;28;20039;-69
2023/08/18 11:16:37;;;;;;;21.13;11.10;;;;;;;33.55;nan;97666.28;4979473;28;20046;-69
2023/08/18 11:19:07;;;;;;;16.08;10.68;;;;;;;33.58;nan;97671.81;4947687;28;20062;-71
2023/08/18 11:21:37;;;;;;;21.98;12.00;;;;;;;33.50;nan;97669.31;4959604;28;20450;-70
2023/08/18 11:24:08;;;;;;;22.15;11.25;;;;;;;33.45;nan;97664.16;4961449;28;20160;-68
2023/08/18 11:26:39;;;;;;;17.60;11.95;;;;;;;33.45;nan;97651.22;4958874;28;20051;-71
2023/08/18 11:29:10;;;;;;;17.02;10.68;;;;;;;33.46;nan;97660.25;4958585;28;20054;-71
2023/08/18 11:31:40;;;;;;;21.98;10.55;;;;;;;33.44;nan;97655.09;4959982;28;20078;-69
2023/08/18 11:34:11;;;;;;;19.95;10.60;;;;;;;33.45;nan;97661.41;4978161;28;20051;-72
2023/08/18 11:36:41;;;;;;;20.77;12.07;;;;;;;33.44;nan;97649.63;4962414;28;20091;-71
2023/08/18 11:39:12;;;;;;;18.35;10.88;;;;;;;33.41;nan;97647.63;4958222;28;20051;-70
2023/08/18 11:41:43;;;;;;;18.02;10.35;;;;;;;33.45;nan;97642.19;4961960;28;20053;-71
2023/08/18 11:44:13;;;;;;;17.75;9.88;;;;;;;33.46;nan;97639.03;4960000;28;20046;-71
2023/08/18 11:46:43;;;;;;;19.02;10.30;;;;;;;33.43;nan;97637.03;4962374;28;20051;-71
2023/08/18 11:49:15;;;;;;;19.35;10.80;;;;;;;33.45;nan;97642.97;4959522;28;20114;-69
2023/08/18 11:52:04;;;;;;;24.88;11.98;;;;;;;33.41;nan;97634.66;4977817;28;20141;-69
2023/08/18 11:54:35;;;;;;;26.30;13.43;;;;;;;33.39;nan;97636.19;4962357;28;20373;-71